Time;durP1;ratioP1;P1;durP2;ratioP2;P2;SDS_P1;SDS_P2;PMS_P1;PMS_P2;Temp;Humidity;BMP_temperature;BMP_pressure;BME280_temperature;BME280_humidity;BME280_pressure;Samples;Min_cycle;Max_cycle;Signal;HPM_P1;HPM_P2
2021/08/18 00:01:59;;;;;;;0.10;0.10;;;15.80;99.90;;;;;;4967017;28;20114;-84
2021/08/18 00:04:25;;;;;;;1.27;0.77;;;15.80;99.90;;;;;;4965627;28;20129;-82
2021/08/18 00:06:50;;;;;;;0.57;0.57;;;15.90;99.90;;;;;;4964007;28;20114;-83
2021/08/18 00:09:16;;;;;;;0.37;0.37;;;15.80;99.90;;;;;;4956083;28;20113;-81
2021/08/18 00:11:42;;;;;;;0.00;0.00;;;15.90;99.90;;;;;;4964348;28;20031;-84
2021/08/18 00:14:08;;;;;;;0.20;0.20;;;15.90;99.90;;;;;;4966700;28;20406;-83
2021/08/18 00:16:34;;;;;;;0.22;0.22;;;15.90;99.90;;;;;;4964928;28;20027;-83
2021/08/18 00:18:59;;;;;;;0.10;0.10;;;16.00;99.90;;;;;;4964281;28;20410;-84
2021/08/18 00:21:26;;;;;;;0.57;0.37;;;15.90;99.90;;;;;;4963440;28;20105;-84
2021/08/18 00:23:52;;;;;;;0.10;0.10;;;15.90;99.90;;;;;;4964778;28;20043;-83
2021/08/18 00:26:17;;;;;;;0.73;0.67;;;15.90;99.90;;;;;;4964881;28;20086;-82
2021/08/18 00:28:44;;;;;;;0.80;0.37;;;16.00;99.90;;;;;;4965814;28;20027;-82
2021/08/18 00:31:14;;;;;;;0.20;0.20;;;16.00;99.90;;;;;;4963432;28;20030;-83
2021/08/18 00:33:40;;;;;;;0.10;0.10;;;16.00;99.90;;;;;;4958500;28;20408;-84
2021/08/18 00:36:06;;;;;;;0.10;0.10;;;15.90;99.90;;;;;;4962781;28;20932;-82
2021/08/18 00:38:31;;;;;;;0.37;0.37;;;16.00;99.90;;;;;;4963439;28;20104;-83
2021/08/18 00:40:57;;;;;;;0.40;0.40;;;15.90;99.90;;;;;;4965651;28;20031;-83
2021/08/18 00:43:23;;;;;;;0.20;0.20;;;15.80;99.90;;;;;;4964083;28;20026;-83
2021/08/18 00:45:50;;;;;;;0.10;0.10;;;15.90;99.90;;;;;;4962438;28;20105;-83
2021/08/18 00:48:16;;;;;;;0.17;0.17;;;15.90;99.90;;;;;;4962149;28;20424;-83
2021/08/18 00:50:42;;;;;;;0.33;0.33;;;15.90;99.90;;;;;;4964374;28;20591;-83
2021/08/18 00:53:08;;;;;;;0.30;0.30;;;15.90;99.90;;;;;;4963908;28;20034;-83
2021/08/18 00:55:34;;;;;;;0.65;0.65;;;15.90;99.90;;;;;;4964195;28;20058;-83
2021/08/18 00:57:59;;;;;;;0.60;0.27;;;15.90;99.90;;;;;;4964301;28;20638;-83
2021/08/18 01:00:28;;;;;;;3.60;1.13;;;15.90;99.90;;;;;;4964246;28;20027;-83
2021/08/18 01:02:54;;;;;;;0.85;0.55;;;15.90;99.90;;;;;;4961885;28;20015;-84
2021/08/18 01:05:23;;;;;;;0.60;0.60;;;15.90;99.90;;;;;;4963801;28;20497;-83
2021/08/18 01:07:50;;;;;;;0.65;0.40;;;15.90;99.90;;;;;;4963494;28;20034;-84
2021/08/18 01:10:19;;;;;;;0.63;0.40;;;15.90;99.90;;;;;;4963422;28;20443;-83
2021/08/18 01:12:44;;;;;;;0.52;0.30;;;15.90;99.90;;;;;;4962408;28;20027;-84
2021/08/18 01:15:15;;;;;;;0.20;0.20;;;15.90;99.90;;;;;;4963600;28;20035;-83
2021/08/18 01:17:43;;;;;;;0.50;0.50;;;15.90;99.90;;;;;;4961652;28;20449;-83
2021/08/18 01:20:16;;;;;;;0.10;0.10;;;15.90;99.90;;;;;;4964626;28;20038;-83
2021/08/18 01:22:43;;;;;;;0.40;0.28;;;15.80;99.90;;;;;;4964039;28;20078;-84
2021/08/18 01:25:11;;;;;;;0.10;0.10;;;15.80;99.90;;;;;;4962888;28;20031;-83
2021/08/18 01:27:37;;;;;;;0.15;0.15;;;15.70;99.90;;;;;;4962965;28;20031;-83
2021/08/18 01:30:05;;;;;;;1.83;0.30;;;15.70;99.90;;;;;;4963358;28;20069;-82
2021/08/18 01:32:47;;;;;;;0.22;0.22;;;15.70;99.90;;;;;;4963218;28;20039;-83
2021/08/18 01:35:40;;;;;;;0.70;0.63;;;15.80;99.90;;;;;;4957136;28;20046;-83
2021/08/18 01:38:08;;;;;;;0.20;0.20;;;15.80;99.90;;;;;;4955379;28;20074;-83
2021/08/18 01:40:35;;;;;;;0.20;0.20;;;15.80;99.90;;;;;;4960498;28;20038;-83
2021/08/18 01:43:01;;;;;;;0.95;0.55;;;15.80;99.90;;;;;;4962888;28;20035;-83
2021/08/18 01:45:32;;;;;;;0.20;0.20;;;15.80;99.90;;;;;;4962948;28;20137;-83
2021/08/18 01:48:04;;;;;;;0.20;0.20;;;15.70;99.90;;;;;;4962543;28;21917;-83
2021/08/18 01:50:30;;;;;;;0.10;0.10;;;15.80;99.90;;;;;;4960162;28;20108;-83
2021/08/18 01:52:56;;;;;;;0.30;0.30;;;15.80;99.90;;;;;;4964854;28;20055;-83
2021/08/18 01:55:24;;;;;;;1.57;0.73;;;15.70;99.90;;;;;;4961122;28;20046;-82
2021/08/18 01:57:50;;;;;;;0.17;0.17;;;15.70;99.90;;;;;;4957158;28;20888;-83
2021/08/18 02:00:16;;;;;;;0.30;0.30;;;15.70;99.90;;;;;;4952951;28;20047;-83
2021/08/18 02:02:42;;;;;;;0.00;0.00;;;15.70;99.90;;;;;;4958734;28;20453;-83
2021/08/18 02:05:09;;;;;;;0.00;0.00;;;15.70;99.90;;;;;;4963596;28;20041;-83
2021/08/18 02:07:36;;;;;;;0.17;0.17;;;15.70;99.90;;;;;;4963501;28;20035;-84
2021/08/18 02:10:06;;;;;;;0.10;0.10;;;15.60;99.90;;;;;;4962483;28;20039;-83
2021/08/18 02:12:31;;;;;;;0.25;0.25;;;15.70;99.90;;;;;;4960701;28;20053;-83
2021/08/18 02:14:57;;;;;;;0.23;0.23;;;15.70;99.90;;;;;;4959490;28;20043;-82
2021/08/18 02:17:23;;;;;;;0.10;0.10;;;15.70;99.90;;;;;;4963430;28;20523;-83
2021/08/18 02:19:48;;;;;;;0.17;0.17;;;15.70;99.90;;;;;;4961955;28;20030;-84
2021/08/18 02:22:14;;;;;;;1.20;0.30;;;15.70;99.90;;;;;;4961700;28;20082;-84
2021/08/18 02:24:39;;;;;;;0.13;0.13;;;15.60;99.90;;;;;;4963283;28;20039;-83
2021/08/18 02:27:05;;;;;;;0.10;0.10;;;15.60;99.90;;;;;;4962578;28;20560;-84
2021/08/18 02:29:31;;;;;;;0.10;0.10;;;15.60;99.90;;;;;;4962643;28;20041;-84
2021/08/18 02:31:56;;;;;;;0.10;0.10;;;15.60;99.90;;;;;;4964082;28;20038;-84
2021/08/18 02:34:22;;;;;;;0.53;0.53;;;15.60;99.90;;;;;;4965810;28;20046;-83
2021/08/18 02:36:48;;;;;;;0.00;0.00;;;15.60;99.90;;;;;;4964489;28;20039;-82
2021/08/18 02:39:13;;;;;;;0.07;0.07;;;15.70;99.90;;;;;;4964178;28;20817;-82
2021/08/18 02:41:39;;;;;;;0.93;0.80;;;15.60;99.90;;;;;;4966084;28;21673;-83
2021/08/18 02:44:05;;;;;;;1.03;0.50;;;15.60;99.90;;;;;;4966194;28;21837;-83
2021/08/18 02:46:31;;;;;;;0.37;0.30;;;15.60;99.90;;;;;;4963864;28;20035;-82
2021/08/18 02:48:56;;;;;;;0.30;0.30;;;15.60;99.90;;;;;;4965321;28;20027;-83
2021/08/18 02:51:22;;;;;;;0.30;0.30;;;15.50;99.90;;;;;;4963719;28;20333;-82
2021/08/18 02:53:48;;;;;;;0.33;0.23;;;15.50;99.90;;;;;;4964969;28;20107;-83
2021/08/18 02:56:13;;;;;;;0.70;0.70;;;15.50;99.90;;;;;;4965855;28;20034;-83
2021/08/18 02:58:39;;;;;;;0.50;0.50;;;15.50;99.90;;;;;;4965265;28;20027;-82
2021/08/18 03:01:04;;;;;;;0.97;0.47;;;15.50;99.90;;;;;;4964419;28;20045;-83
2021/08/18 03:03:30;;;;;;;0.70;0.37;;;15.50;99.90;;;;;;4964890;28;20209;-83
2021/08/18 03:05:56;;;;;;;0.17;0.17;;;15.60;99.90;;;;;;4964058;28;20035;-83
2021/08/18 03:08:21;;;;;;;1.03;0.30;;;15.50;99.90;;;;;;4966055;28;20034;-83
2021/08/18 03:10:47;;;;;;;0.40;0.33;;;15.50;99.90;;;;;;4966863;28;20031;-83
2021/08/18 03:13:13;;;;;;;0.20;0.20;;;15.50;99.90;;;;;;4965096;28;20501;-83
2021/08/18 03:15:38;;;;;;;0.10;0.10;;;15.50;99.90;;;;;;4965114;28;20042;-83
2021/08/18 03:18:04;;;;;;;0.10;0.10;;;15.50;99.90;;;;;;4963073;28;20054;-83
2021/08/18 03:20:30;;;;;;;0.77;0.43;;;15.50;99.90;;;;;;4965633;28;20067;-83
2021/08/18 03:22:55;;;;;;;6.57;3.00;;;15.50;99.90;;;;;;4960781;28;20077;-82
2021/08/18 03:25:21;;;;;;;0.17;0.17;;;15.60;99.90;;;;;;4963911;28;20042;-83
2021/08/18 03:27:47;;;;;;;0.30;0.30;;;15.50;99.90;;;;;;4964269;28;20027;-84
2021/08/18 03:30:13;;;;;;;0.30;0.30;;;15.50;99.90;;;;;;4964717;28;20066;-83
2021/08/18 03:32:39;;;;;;;0.03;0.03;;;15.40;99.90;;;;;;4965808;28;20498;-84
2021/08/18 03:35:05;;;;;;;0.45;0.45;;;15.40;99.90;;;;;;4963010;28;20054;-83
2021/08/18 03:37:31;;;;;;;0.57;0.57;;;15.40;99.90;;;;;;4964555;28;20600;-83
2021/08/18 03:39:57;;;;;;;0.13;0.13;;;15.30;99.90;;;;;;4964442;28;20033;-83
2021/08/18 03:42:23;;;;;;;0.20;0.20;;;15.30;99.90;;;;;;4963364;28;20421;-82
2021/08/18 03:44:48;;;;;;;0.93;0.60;;;15.20;99.90;;;;;;4964319;28;20813;-83
2021/08/18 03:47:14;;;;;;;0.10;0.10;;;15.30;99.90;;;;;;4965843;28;20298;-83
2021/08/18 03:49:40;;;;;;;0.80;0.80;;;15.30;99.90;;;;;;4965824;28;20450;-84
2021/08/18 03:52:06;;;;;;;0.30;0.30;;;15.20;99.90;;;;;;4965447;28;20595;-84
2021/08/18 03:54:33;;;;;;;0.25;0.25;;;15.20;99.90;;;;;;4963285;28;20039;-84
2021/08/18 03:56:58;;;;;;;0.43;0.40;;;15.20;99.90;;;;;;4965090;28;20035;-84
2021/08/18 03:59:24;;;;;;;0.63;0.63;;;15.20;99.90;;;;;;4963255;28;20077;-84
2021/08/18 04:01:50;;;;;;;0.20;0.20;;;15.20;99.90;;;;;;4965692;28;20056;-83
2021/08/18 04:04:16;;;;;;;1.40;0.20;;;15.30;99.90;;;;;;4964467;28;20101;-83
2021/08/18 04:06:41;;;;;;;0.40;0.40;;;15.20;99.90;;;;;;4963200;28;20034;-84
2021/08/18 04:09:07;;;;;;;0.73;0.73;;;15.20;99.90;;;;;;4964610;28;20289;-83
2021/08/18 04:11:33;;;;;;;0.30;0.30;;;15.20;99.90;;;;;;4964772;28;20134;-83
2021/08/18 04:13:58;;;;;;;1.00;0.97;;;15.20;99.90;;;;;;4966068;28;20067;-83
2021/08/18 04:16:24;;;;;;;0.40;0.40;;;15.20;99.90;;;;;;4964396;28;20039;-83
2021/08/18 04:18:50;;;;;;;0.40;0.40;;;15.20;99.90;;;;;;4963299;28;20183;-83
2021/08/18 04:21:15;;;;;;;0.73;0.37;;;15.20;99.90;;;;;;4962070;28;20054;-83
2021/08/18 04:23:42;;;;;;;0.03;0.03;;;15.30;99.90;;;;;;4963012;28;20055;-83
2021/08/18 04:26:08;;;;;;;0.50;0.50;;;15.40;99.90;;;;;;4964341;28;20035;-83
2021/08/18 04:28:34;;;;;;;0.73;0.27;;;15.30;99.90;;;;;;4963089;28;20034;-82
2021/08/18 04:30:59;;;;;;;0.10;0.10;;;15.40;99.90;;;;;;4965014;28;20524;-84
2021/08/18 04:33:25;;;;;;;0.30;0.30;;;15.40;99.90;;;;;;4962971;28;20034;-83
2021/08/18 04:35:51;;;;;;;0.77;0.77;;;15.30;99.90;;;;;;4963038;28;20113;-83
2021/08/18 04:38:16;;;;;;;0.37;0.37;;;15.40;99.90;;;;;;4964926;28;20042;-83
2021/08/18 04:40:42;;;;;;;7.10;1.73;;;15.40;99.90;;;;;;4964507;28;20026;-82
2021/08/18 04:43:14;;;;;;;0.47;0.47;;;15.30;99.90;;;;;;4963462;28;20081;-83
2021/08/18 04:45:40;;;;;;;0.63;0.52;;;15.40;99.90;;;;;;4960943;28;20040;-84
2021/08/18 04:48:06;;;;;;;0.35;0.32;;;15.20;99.90;;;;;;4962489;28;20042;-83
2021/08/18 04:50:32;;;;;;;0.97;0.97;;;15.20;99.90;;;;;;4955152;28;20043;-83
2021/08/18 04:52:58;;;;;;;0.57;0.57;;;15.30;99.90;;;;;;4962707;28;20058;-83
2021/08/18 04:55:23;;;;;;;0.30;0.30;;;15.20;99.90;;;;;;4963871;28;20385;-83
2021/08/18 04:57:49;;;;;;;0.00;0.00;;;15.30;99.90;;;;;;4962841;28;20850;-83
2021/08/18 05:00:16;;;;;;;0.20;0.20;;;15.20;99.90;;;;;;4964106;28;20101;-83
2021/08/18 05:02:44;;;;;;;0.25;0.25;;;15.20;99.90;;;;;;4963591;28;20019;-83
2021/08/18 05:05:10;;;;;;;0.32;0.32;;;15.30;99.90;;;;;;4963784;28;20043;-91
2021/08/18 05:07:36;;;;;;;0.28;0.28;;;15.30;99.90;;;;;;4964775;28;20117;-89
2021/08/18 05:10:02;;;;;;;0.47;0.37;;;15.10;99.90;;;;;;4963314;28;20417;-89
2021/08/18 05:12:28;;;;;;;0.20;0.20;;;15.40;99.90;;;;;;4965592;28;20019;-90
2021/08/18 05:14:53;;;;;;;0.63;0.63;;;15.40;99.90;;;;;;4964197;28;20049;-88
2021/08/18 05:17:19;;;;;;;0.10;0.10;;;15.50;99.90;;;;;;4965818;28;20784;-89
2021/08/18 05:19:45;;;;;;;0.30;0.23;;;15.20;99.90;;;;;;4967391;28;20190;-91
2021/08/18 05:22:11;;;;;;;0.40;0.40;;;15.00;99.90;;;;;;4958177;28;20513;-86
2021/08/18 05:24:36;;;;;;;1.17;1.07;;;15.30;99.90;;;;;;4961284;28;20057;-87
2021/08/18 05:27:02;;;;;;;0.40;0.13;;;15.50;99.90;;;;;;4962003;28;20502;-86
2021/08/18 05:29:28;;;;;;;0.10;0.10;;;15.60;99.90;;;;;;4962124;28;20122;-87
2021/08/18 05:31:54;;;;;;;0.20;0.20;;;15.90;99.90;;;;;;4961338;28;20139;-87
2021/08/18 05:34:19;;;;;;;0.10;0.10;;;16.10;99.90;;;;;;4963405;28;20579;-88
2021/08/18 05:36:45;;;;;;;0.30;0.30;;;16.00;99.90;;;;;;4961632;28;20041;-87
2021/08/18 05:39:11;;;;;;;0.27;0.27;;;15.70;99.90;;;;;;4963765;28;20035;-87
2021/08/18 05:41:37;;;;;;;0.17;0.17;;;15.50;99.90;;;;;;4955521;28;20173;-87
2021/08/18 05:44:02;;;;;;;0.10;0.10;;;15.90;99.90;;;;;;4962119;28;20030;-86
2021/08/18 05:46:28;;;;;;;4.40;0.80;;;16.00;99.90;;;;;;4959255;28;20027;-87
2021/08/18 05:48:54;;;;;;;0.50;0.43;;;15.60;99.90;;;;;;4958255;28;20133;-87
2021/08/18 05:51:20;;;;;;;0.53;0.53;;;16.10;99.90;;;;;;4962081;28;20031;-88
2021/08/18 05:53:49;;;;;;;0.13;0.13;;;15.60;99.90;;;;;;4961568;28;20023;-87
2021/08/18 05:56:16;;;;;;;0.20;0.20;;;16.00;99.90;;;;;;4963358;28;20047;-87
2021/08/18 05:58:42;;;;;;;;;;;16.00;99.90;;;;;;4963912;28;20027;-84
2021/08/18 06:01:07;;;;;;;0.10;0.10;;;16.10;99.90;;;;;;4962542;28;19910;-81
2021/08/18 06:03:35;;;;;;;0.23;0.20;;;15.90;99.90;;;;;;4962890;28;20022;-80
2021/08/18 06:06:00;;;;;;;0.10;0.10;;;15.60;99.90;;;;;;4962668;28;20034;-81
2021/08/18 06:08:26;;;;;;;0.10;0.10;;;15.70;99.90;;;;;;4952093;28;20482;-82
2021/08/18 06:10:51;;;;;;;0.77;0.30;;;15.70;99.90;;;;;;4968510;28;20065;-82
2021/08/18 06:13:17;;;;;;;0.03;0.03;;;15.70;99.90;;;;;;4967083;28;20042;-82
2021/08/18 06:15:43;;;;;;;0.10;0.10;;;15.70;99.90;;;;;;4964799;28;20038;-82
2021/08/18 06:18:08;;;;;;;0.20;0.20;;;15.60;99.90;;;;;;4965601;28;20023;-82
2021/08/18 06:20:34;;;;;;;0.10;0.10;;;15.70;99.90;;;;;;4967084;28;20833;-82
2021/08/18 06:23:00;;;;;;;0.17;0.17;;;15.60;99.90;;;;;;4956196;28;20043;-82
2021/08/18 06:25:25;;;;;;;0.40;0.40;;;15.70;99.90;;;;;;4966190;28;20062;-82
2021/08/18 06:27:51;;;;;;;0.10;0.10;;;15.80;99.90;;;;;;4963552;28;20125;-82
2021/08/18 06:30:17;;;;;;;0.13;0.13;;;15.70;99.90;;;;;;4962461;28;20035;-82
2021/08/18 06:32:43;;;;;;;0.00;0.00;;;15.70;99.90;;;;;;4966753;28;20031;-82
2021/08/18 06:35:09;;;;;;;0.20;0.20;;;15.80;99.90;;;;;;4969043;28;20034;-81
2021/08/18 06:37:35;;;;;;;1.10;0.50;;;15.80;99.90;;;;;;4966664;28;20528;-83
2021/08/18 06:40:03;;;;;;;1.23;0.57;;;15.80;99.90;;;;;;4965216;28;20043;-81
2021/08/18 06:42:29;;;;;;;0.00;0.00;;;15.90;99.90;;;;;;4966613;28;20118;-81
2021/08/18 06:44:54;;;;;;;0.00;0.00;;;16.00;99.90;;;;;;4966016;28;20097;-81
2021/08/18 06:47:20;;;;;;;0.23;0.23;;;16.10;99.90;;;;;;4966870;28;20121;-81
2021/08/18 06:49:46;;;;;;;0.33;0.33;;;16.10;99.90;;;;;;4968025;28;20034;-80
2021/08/18 06:52:11;;;;;;;0.30;0.30;;;16.20;99.90;;;;;;4965296;28;20030;-82
2021/08/18 06:54:37;;;;;;;0.43;0.30;;;16.40;99.90;;;;;;4965365;28;20474;-82
2021/08/18 06:57:03;;;;;;;0.63;0.22;;;16.30;99.90;;;;;;4962524;28;20031;-82
2021/08/18 06:59:29;;;;;;;1.23;0.53;;;16.40;99.90;;;;;;4964612;28;20134;-82
2021/08/18 07:01:55;;;;;;;0.07;0.07;;;16.60;99.90;;;;;;4962663;28;20293;-82
2021/08/18 07:04:21;;;;;;;0.00;0.00;;;16.60;99.90;;;;;;4965961;28;20062;-82
2021/08/18 07:06:47;;;;;;;0.20;0.20;;;16.50;99.90;;;;;;4961156;28;20038;-82
2021/08/18 07:09:12;;;;;;;0.67;0.40;;;16.50;99.90;;;;;;4965271;28;20038;-82
2021/08/18 07:11:38;;;;;;;0.17;0.17;;;16.70;99.90;;;;;;4965491;28;20035;-81
2021/08/18 07:14:05;;;;;;;0.67;0.50;;;16.80;99.90;;;;;;4967813;28;20211;-82
2021/08/18 07:16:33;;;;;;;0.35;0.35;;;16.80;99.90;;;;;;4964237;28;20042;-82
2021/08/18 07:18:59;;;;;;;0.10;0.10;;;16.70;99.90;;;;;;4964990;28;20027;-81
2021/08/18 07:21:25;;;;;;;;;;;16.80;99.90;;;;;;4966008;28;20441;-82
2021/08/18 07:23:53;;;;;;;0.20;0.20;;;17.10;99.90;;;;;;4964529;28;19922;-82
2021/08/18 07:26:21;;;;;;;0.10;0.10;;;17.20;99.90;;;;;;4965951;28;20027;-81
2021/08/18 07:28:48;;;;;;;0.70;0.20;;;17.30;99.90;;;;;;4966834;28;20035;-81
2021/08/18 07:31:14;;;;;;;0.15;0.15;;;17.30;99.90;;;;;;4965274;28;20027;-82
2021/08/18 07:33:40;;;;;;;1.35;0.65;;;17.30;99.90;;;;;;4964760;28;20865;-82
2021/08/18 07:36:06;;;;;;;0.10;0.10;;;17.30;99.90;;;;;;4965225;28;20157;-82
2021/08/18 07:38:32;;;;;;;0.00;0.00;;;17.40;99.90;;;;;;4964729;28;20585;-82
2021/08/18 07:40:57;;;;;;;0.10;0.10;;;17.50;99.90;;;;;;4961264;28;20748;-81
2021/08/18 07:43:23;;;;;;;0.10;0.10;;;17.40;99.90;;;;;;4965130;28;20537;-82
2021/08/18 07:45:49;;;;;;;0.00;0.00;;;17.80;99.90;;;;;;4964821;28;20058;-83
2021/08/18 07:48:14;;;;;;;0.00;0.00;;;17.90;99.90;;;;;;4964515;28;20875;-82
2021/08/18 07:50:40;;;;;;;0.00;0.00;;;18.10;99.90;;;;;;4965173;28;20557;-81
2021/08/18 07:53:06;;;;;;;0.00;0.00;;;18.30;99.90;;;;;;4962560;28;20030;-82
2021/08/18 07:55:32;;;;;;;0.23;0.20;;;18.40;99.90;;;;;;4964629;28;20043;-82
2021/08/18 07:57:57;;;;;;;0.73;0.30;;;18.50;99.90;;;;;;4964557;28;20065;-82
2021/08/18 08:00:23;;;;;;;0.10;0.10;;;18.40;99.90;;;;;;4960940;28;20028;-81
2021/08/18 08:02:49;;;;;;;0.00;0.00;;;18.60;99.90;;;;;;4965096;28;20027;-81
2021/08/18 08:05:16;;;;;;;0.20;0.20;;;18.60;99.90;;;;;;4966735;28;20034;-82
2021/08/18 08:07:43;;;;;;;0.43;0.20;;;18.70;99.90;;;;;;4965439;28;20638;-82
2021/08/18 08:10:12;;;;;;;0.03;0.03;;;18.60;99.90;;;;;;4964813;28;20066;-82
2021/08/18 08:12:38;;;;;;;0.10;0.10;;;18.60;99.90;;;;;;4959788;28;20409;-82
2021/08/18 08:15:06;;;;;;;0.00;0.00;;;18.70;99.90;;;;;;4965008;28;20039;-82
2021/08/18 08:17:31;;;;;;;0.00;0.00;;;18.50;99.90;;;;;;4964583;28;20520;-81
2021/08/18 08:19:57;;;;;;;0.13;0.13;;;18.60;99.90;;;;;;4966601;28;20026;-82
2021/08/18 08:22:23;;;;;;;0.10;0.10;;;18.20;99.90;;;;;;4958651;28;20034;-82
2021/08/18 08:24:49;;;;;;;0.60;0.07;;;18.30;99.90;;;;;;4964360;28;20045;-81
2021/08/18 08:27:14;;;;;;;0.00;0.00;;;18.70;99.90;;;;;;4963899;28;20535;-83
2021/08/18 08:29:40;;;;;;;0.43;0.23;;;18.80;99.90;;;;;;4964833;28;20287;-81
2021/08/18 08:32:06;;;;;;;0.57;0.53;;;18.40;99.90;;;;;;4960513;28;20035;-81
2021/08/18 08:34:32;;;;;;;0.00;0.00;;;18.10;99.90;;;;;;4964080;28;20042;-82
2021/08/18 08:36:57;;;;;;;0.10;0.10;;;18.10;99.90;;;;;;4963565;28;20541;-82
2021/08/18 08:39:23;;;;;;;0.20;0.20;;;18.30;99.90;;;;;;4964190;28;20030;-81
2021/08/18 08:41:49;;;;;;;0.00;0.00;;;18.60;99.90;;;;;;4963987;28;20034;-82
2021/08/18 08:44:20;;;;;;;0.00;0.00;;;18.60;99.90;;;;;;4964798;28;20417;-81
2021/08/18 08:46:51;;;;;;;0.00;0.00;;;18.90;99.90;;;;;;4964660;28;20106;-82
2021/08/18 08:49:18;;;;;;;0.00;0.00;;;18.60;99.90;;;;;;4959380;28;20035;-82
2021/08/18 08:51:45;;;;;;;3.28;1.08;;;18.80;99.90;;;;;;4956159;28;20767;-82
2021/08/18 08:54:11;;;;;;;0.00;0.00;;;19.40;99.90;;;;;;4964047;28;20030;-82
2021/08/18 08:56:37;;;;;;;0.00;0.00;;;19.70;99.90;;;;;;4963707;28;20047;-82
2021/08/18 08:59:03;;;;;;;0.00;0.00;;;20.60;99.90;;;;;;4966290;28;20031;-82
2021/08/18 09:02:01;;;;;;;0.00;0.00;;;20.60;99.90;;;;;;4964002;28;20034;-81
2021/08/18 09:04:35;;;;;;;0.00;0.00;;;20.90;99.90;;;;;;4962337;28;20065;-83
2021/08/18 09:07:13;;;;;;;0.00;0.00;;;20.80;99.90;;;;;;4963425;28;20057;-83
2021/08/18 09:09:53;;;;;;;0.00;0.00;;;20.40;99.90;;;;;;4959425;28;20034;-82
2021/08/18 09:12:26;;;;;;;0.00;0.00;;;19.70;99.90;;;;;;4963617;28;20034;-81
2021/08/18 09:14:51;;;;;;;0.10;0.10;;;19.40;99.90;;;;;;4963020;28;20049;-82
2021/08/18 09:17:33;;;;;;;0.00;0.00;;;19.90;99.90;;;;;;4947699;28;20043;-82
2021/08/18 09:20:03;;;;;;;0.10;0.08;;;19.70;99.90;;;;;;4960687;28;20018;-82
2021/08/18 09:22:30;;;;;;;0.00;0.00;;;20.10;99.90;;;;;;4963806;28;20027;-82
2021/08/18 09:25:17;;;;;;;0.00;0.00;;;20.80;99.90;;;;;;4963070;28;20090;-82
2021/08/18 09:27:46;;;;;;;0.00;0.00;;;21.10;99.70;;;;;;4963334;28;20031;-82
2021/08/18 09:30:34;;;;;;;0.05;0.05;;;20.80;99.70;;;;;;4963751;28;20102;-82
2021/08/18 09:33:06;;;;;;;0.00;0.00;;;20.60;99.90;;;;;;4948580;28;20054;-82
2021/08/18 09:35:32;;;;;;;0.00;0.00;;;19.80;99.90;;;;;;4963142;28;20050;-82
2021/08/18 09:38:02;;;;;;;0.00;0.00;;;20.00;99.90;;;;;;4956530;28;20027;-82
2021/08/18 09:40:50;;;;;;;0.00;0.00;;;19.50;99.90;;;;;;4960332;28;20043;-82
2021/08/18 09:43:25;;;;;;;0.00;0.00;;;19.70;99.90;;;;;;4961986;28;20039;-82
2021/08/18 09:45:54;;;;;;;0.00;0.00;;;20.20;99.90;;;;;;4963254;28;20042;-82
2021/08/18 09:48:21;;;;;;;0.00;0.00;;;20.40;99.90;;;;;;4962582;28;20109;-82
2021/08/18 09:50:53;;;;;;;0.10;0.10;;;20.60;99.90;;;;;;4962996;28;20033;-81
2021/08/18 09:53:33;;;;;;;0.03;0.03;;;21.50;99.00;;;;;;4962972;28;20027;-82
2021/08/18 09:56:02;;;;;;;0.00;0.00;;;21.70;98.60;;;;;;4964459;28;20195;-82
2021/08/18 09:58:31;;;;;;;0.10;0.10;;;21.60;99.20;;;;;;4961472;28;20093;-82
2021/08/18 10:00:59;;;;;;;0.00;0.00;;;21.80;99.10;;;;;;4962859;28;20041;-82
2021/08/18 10:03:26;;;;;;;0.00;0.00;;;21.80;98.40;;;;;;4953258;28;20038;-81
2021/08/18 10:05:55;;;;;;;0.00;0.00;;;21.80;98.50;;;;;;4961207;28;20070;-81
2021/08/18 10:08:21;;;;;;;0.00;0.00;;;21.30;98.90;;;;;;4963200;28;20584;-81
2021/08/18 10:10:47;;;;;;;0.10;0.10;;;21.30;98.90;;;;;;4951835;28;20098;-82
2021/08/18 10:13:14;;;;;;;0.00;0.00;;;21.80;98.80;;;;;;4944969;28;20035;-82
2021/08/18 10:15:40;;;;;;;0.00;0.00;;;21.60;98.90;;;;;;4947560;28;20070;-82
2021/08/18 10:18:07;;;;;;;0.43;0.22;;;21.30;98.80;;;;;;4946287;28;20117;-82
2021/08/18 10:20:35;;;;;;;0.05;0.05;;;21.50;98.50;;;;;;4959521;28;20515;-82
2021/08/18 10:23:03;;;;;;;1.10;0.30;;;21.60;98.40;;;;;;4963305;28;20050;-82
2021/08/18 10:25:46;;;;;;;1.40;0.30;;;21.50;98.10;;;;;;4961364;28;20069;-82
2021/08/18 10:28:12;;;;;;;0.20;0.20;;;21.50;98.50;;;;;;4961418;28;20038;-82
2021/08/18 10:30:50;;;;;;;0.00;0.00;;;21.80;98.10;;;;;;4961011;28;20029;-82
2021/08/18 10:33:53;;;;;;;0.00;0.00;;;22.10;97.70;;;;;;4960615;28;20086;-82
2021/08/18 10:36:40;;;;;;;0.20;0.20;;;22.10;97.90;;;;;;4959813;28;20041;-82
2021/08/18 10:39:39;;;;;;;0.15;0.05;;;21.70;97.70;;;;;;4955311;28;20043;-82
2021/08/18 10:42:10;;;;;;;0.10;0.10;;;21.50;98.40;;;;;;4954010;28;20793;-82
2021/08/18 10:44:48;;;;;;;0.55;0.40;;;21.50;98.20;;;;;;4950300;28;20038;-82
2021/08/18 10:47:17;;;;;;;0.03;0.03;;;21.40;98.30;;;;;;4948186;28;20034;-82
2021/08/18 10:49:44;;;;;;;0.00;0.00;;;21.60;98.00;;;;;;4953025;28;20032;-82
2021/08/18 10:52:11;;;;;;;0.98;0.77;;;21.00;99.50;;;;;;4954408;28;20665;-82
2021/08/18 10:54:42;;;;;;;0.00;0.00;;;21.20;98.60;;;;;;4953869;28;20864;-81
2021/08/18 10:57:47;;;;;;;0.00;0.00;;;21.20;98.70;;;;;;4954565;28;20058;-83
2021/08/18 11:00:32;;;;;;;1.55;0.60;;;21.60;98.30;;;;;;4954364;28;20086;-82
2021/08/18 11:02:58;;;;;;;0.03;0.03;;;21.90;98.10;;;;;;4945923;28;20035;-81
2021/08/18 11:05:23;;;;;;;0.23;0.23;;;22.00;98.00;;;;;;4958514;28;20417;-82
2021/08/18 11:08:02;;;;;;;0.23;0.23;;;22.30;96.90;;;;;;4961278;28;20022;-82
2021/08/18 11:10:28;;;;;;;0.10;0.10;;;22.80;96.80;;;;;;4956966;28;20030;-82
2021/08/18 11:12:58;;;;;;;0.00;0.00;;;22.10;97.90;;;;;;4953100;28;20027;-82
2021/08/18 11:15:26;;;;;;;0.00;0.00;;;22.50;97.40;;;;;;4953738;28;20039;-82
2021/08/18 11:17:57;;;;;;;0.00;0.00;;;22.30;97.40;;;;;;4952114;28;20074;-81
2021/08/18 11:20:28;;;;;;;0.08;0.08;;;22.40;96.90;;;;;;4947284;28;20023;-82
2021/08/18 11:22:55;;;;;;;0.10;0.10;;;22.60;96.10;;;;;;4951152;28;20043;-81
2021/08/18 11:25:21;;;;;;;0.10;0.10;;;22.80;96.20;;;;;;4946958;28;20031;-82
2021/08/18 11:27:47;;;;;;;0.25;0.10;;;23.20;96.30;;;;;;4955840;28;20095;-83
2021/08/18 11:30:13;;;;;;;;;;;22.70;95.50;;;;;;4959961;28;20407;-82
2021/08/18 11:32:39;;;;;;;1.25;0.40;;;22.70;96.40;;;;;;4946650;28;19921;-81
2021/08/18 11:35:05;;;;;;;0.77;0.77;;;23.20;95.60;;;;;;4967324;28;20528;-82
2021/08/18 11:37:32;;;;;;;;;;;23.60;94.80;;;;;;4963971;28;20460;-81
2021/08/18 11:39:59;;;;;;;;;;;23.80;93.80;;;;;;4964097;28;19936;-82
2021/08/18 11:42:25;;;;;;;;;;;23.50;94.70;;;;;;4963912;28;20458;-81
2021/08/18 11:45:00;;;;;;;;;;;23.50;94.90;;;;;;4963897;28;19914;-83
2021/08/18 11:47:30;;;;;;;;;;;23.40;95.00;;;;;;4964539;28;19981;-82
2021/08/18 11:49:56;;;;;;;;;;;23.20;94.70;;;;;;4966982;28;20388;-82
2021/08/18 11:52:23;;;;;;;;;;;23.30;94.90;;;;;;4963800;28;19917;-82
2021/08/18 11:54:58;;;;;;;;;;;22.70;95.50;;;;;;4963818;28;19914;-82
2021/08/18 11:57:25;;;;;;;;;;;22.60;95.50;;;;;;4965213;28;19914;-82
2021/08/18 11:59:55;;;;;;;;;;;23.20;94.70;;;;;;4964107;28;19961;-82
2021/08/18 12:02:22;;;;;;;;;;;23.40;94.60;;;;;;4965688;28;20352;-83
2021/08/18 12:04:48;;;;;;;;;;;23.50;94.60;;;;;;4967183;28;19910;-82
2021/08/18 12:07:15;;;;;;;;;;;23.80;94.20;;;;;;4964961;28;19910;-81
2021/08/18 12:09:42;;;;;;;;;;;24.30;93.80;;;;;;4964979;28;19955;-82
2021/08/18 12:12:14;;;;;;;;;;;24.40;93.30;;;;;;4965214;28;19921;-82
2021/08/18 12:14:42;;;;;;;;;;;24.60;92.60;;;;;;4948801;28;19973;-83
2021/08/18 12:17:08;;;;;;;;;;;23.90;93.90;;;;;;4963565;28;19961;-82
2021/08/18 12:19:38;;;;;;;;;;;22.80;94.50;;;;;;4965029;28;19913;-82
2021/08/18 12:22:10;;;;;;;;;;;22.80;95.50;;;;;;4963199;28;19914;-82
2021/08/18 12:24:36;;;;;;;;;;;22.70;99.90;;;;;;4964960;28;19928;-82
2021/08/18 12:27:03;;;;;;;;;;;22.60;94.80;;;;;;4964580;28;19918;-82
2021/08/18 12:29:29;;;;;;;;;;;22.70;95.30;;;;;;4964599;28;19912;-82
2021/08/18 12:32:01;;;;;;;;;;;22.80;95.40;;;;;;4967291;28;19926;-82
2021/08/18 12:34:31;;;;;;;;;;;22.70;95.40;;;;;;4963502;28;20436;-82
2021/08/18 12:37:02;;;;;;;;;;;22.80;95.20;;;;;;4964447;28;20417;-82
2021/08/18 12:39:32;;;;;;;;;;;23.00;95.10;;;;;;4961572;28;19910;-83
2021/08/18 12:41:58;;;;;;;;;;;22.70;95.90;;;;;;4964236;28;20293;-82
2021/08/18 12:44:35;;;;;;;;;;;23.00;94.70;;;;;;4965221;28;19906;-82
2021/08/18 12:47:11;;;;;;;;;;;23.20;94.50;;;;;;4966114;28;20338;-82
2021/08/18 12:49:37;;;;;;;;;;;23.10;94.80;;;;;;4955001;28;19921;-83
2021/08/18 12:52:04;;;;;;;;;;;23.00;95.00;;;;;;4959901;28;19914;-82
2021/08/18 12:54:30;;;;;;;;;;;23.50;94.40;;;;;;4964473;28;20000;-82
2021/08/18 12:56:55;;;;;;;;;;;23.50;94.60;;;;;;4962658;28;19914;-81
2021/08/18 12:59:21;;;;;;;;;;;22.90;95.80;;;;;;4965043;28;19936;-82
2021/08/18 13:01:46;;;;;;;;;;;23.40;94.60;;;;;;4966169;28;19910;-83